sensor_id;sensor_type;location;lat;lon;timestamp;temperature;humidity
5358;DHT22;2702;51.014;7.170;2022-12-18T00:01:20;-4.70;99.90
5358;DHT22;2702;51.014;7.170;2022-12-18T00:03:47;-4.70;99.90
5358;DHT22;2702;51.014;7.170;2022-12-18T00:06:13;-4.70;99.90
5358;DHT22;2702;51.014;7.170;2022-12-18T00:08:41;-4.70;99.90
5358;DHT22;2702;51.014;7.170;2022-12-18T00:11:13;-4.70;99.90
5358;DHT22;2702;51.014;7.170;2022-12-18T00:13:40;-4.70;99.90
5358;DHT22;2702;51.014;7.170;2022-12-18T00:16:09;-4.70;99.90
5358;DHT22;2702;51.014;7.170;2022-12-18T00:18:35;-4.70;99.90
5358;DHT22;2702;51.014;7.170;2022-12-18T00:21:03;-4.60;99.90
5358;DHT22;2702;51.014;7.170;2022-12-18T00:23:30;-4.50;99.90
5358;DHT22;2702;51.014;7.170;2022-12-18T00:26:04;-4.60;99.90
5358;DHT22;2702;51.014;7.170;2022-12-18T00:28:30;-4.50;99.90
5358;DHT22;2702;51.014;7.170;2022-12-18T00:31:16;-4.60;99.90
5358;DHT22;2702;51.014;7.170;2022-12-18T00:33:43;-4.50;99.90
5358;DHT22;2702;51.014;7.170;2022-12-18T00:36:17;-4.60;99.90
5358;DHT22;2702;51.014;7.170;2022-12-18T00:38:44;-4.60;99.90
5358;DHT22;2702;51.014;7.170;2022-12-18T00:41:12;-4.70;99.90
5358;DHT22;2702;51.014;7.170;2022-12-18T00:43:38;-4.60;99.90
5358;DHT22;2702;51.014;7.170;2022-12-18T00:46:05;-4.60;99.90
5358;DHT22;2702;51.014;7.170;2022-12-18T00:48:32;-4.60;99.90
5358;DHT22;2702;51.014;7.170;2022-12-18T00:50:58;-4.70;99.90
5358;DHT22;2702;51.014;7.170;2022-12-18T00:53:24;-4.60;99.90
5358;DHT22;2702;51.014;7.170;2022-12-18T00:55:50;-4.60;99.90
5358;DHT22;2702;51.014;7.170;2022-12-18T00:58:16;-4.60;99.90
5358;DHT22;2702;51.014;7.170;2022-12-18T01:00:42;-4.60;99.90
5358;DHT22;2702;51.014;7.170;2022-12-18T01:03:10;-4.60;99.90
5358;DHT22;2702;51.014;7.170;2022-12-18T01:05:42;-4.50;99.90
5358;DHT22;2702;51.014;7.170;2022-12-18T01:08:08;-4.60;99.90
5358;DHT22;2702;51.014;7.170;2022-12-18T01:10:33;-4.60;99.90
5358;DHT22;2702;51.014;7.170;2022-12-18T01:12:59;-4.60;99.90
5358;DHT22;2702;51.014;7.170;2022-12-18T01:15:25;-4.60;99.90
5358;DHT22;2702;51.014;7.170;2022-12-18T01:17:52;-4.60;99.90
5358;DHT22;2702;51.014;7.170;2022-12-18T01:20:18;-4.50;99.90
5358;DHT22;2702;51.014;7.170;2022-12-18T01:22:44;-4.50;99.90
5358;DHT22;2702;51.014;7.170;2022-12-18T01:25:10;-4.50;99.90
5358;DHT22;2702;51.014;7.170;2022-12-18T01:27:36;-4.50;99.90
5358;DHT22;2702;51.014;7.170;2022-12-18T01:30:02;-4.40;99.90
5358;DHT22;2702;51.014;7.170;2022-12-18T01:32:30;-4.40;99.90
5358;DHT22;2702;51.014;7.170;2022-12-18T01:34:56;-4.40;99.90
5358;DHT22;2702;51.014;7.170;2022-12-18T01:37:22;-4.40;99.90
5358;DHT22;2702;51.014;7.170;2022-12-18T01:39:48;-4.30;99.90
5358;DHT22;2702;51.014;7.170;2022-12-18T01:42:15;-4.30;99.90
5358;DHT22;2702;51.014;7.170;2022-12-18T01:45:06;-4.20;99.90
5358;DHT22;2702;51.014;7.170;2022-12-18T01:47:45;-4.20;99.90
5358;DHT22;2702;51.014;7.170;2022-12-18T01:50:34;-4.30;99.90
5358;DHT22;2702;51.014;7.170;2022-12-18T01:53:09;-4.30;99.90
5358;DHT22;2702;51.014;7.170;2022-12-18T01:55:46;-4.30;99.90
5358;DHT22;2702;51.014;7.170;2022-12-18T01:58:13;-4.30;99.90
5358;DHT22;2702;51.014;7.170;2022-12-18T02:00:39;-4.20;99.90
5358;DHT22;2702;51.014;7.170;2022-12-18T02:03:05;-4.30;99.90
5358;DHT22;2702;51.014;7.170;2022-12-18T02:06:00;-4.30;99.90
5358;DHT22;2702;51.014;7.170;2022-12-18T02:11:19;-4.30;99.90
5358;DHT22;2702;51.014;7.170;2022-12-18T02:18:47;-4.10;99.90
5358;DHT22;2702;51.014;7.170;2022-12-18T02:24:42;-4.10;99.90
5358;DHT22;2702;51.014;7.170;2022-12-18T02:27:06;-4.10;99.90
5358;DHT22;2702;51.014;7.170;2022-12-18T02:29:39;-4.10;99.90
5358;DHT22;2702;51.014;7.170;2022-12-18T02:32:10;-4.10;99.90
5358;DHT22;2702;51.014;7.170;2022-12-18T02:34:39;-4.00;99.90
5358;DHT22;2702;51.014;7.170;2022-12-18T02:37:08;-4.00;99.90
5358;DHT22;2702;51.014;7.170;2022-12-18T02:39:38;-4.10;99.90
5358;DHT22;2702;51.014;7.170;2022-12-18T02:42:04;-4.10;99.90
5358;DHT22;2702;51.014;7.170;2022-12-18T02:44:43;-4.10;99.90
5358;DHT22;2702;51.014;7.170;2022-12-18T02:47:12;-4.10;99.90
5358;DHT22;2702;51.014;7.170;2022-12-18T03:00:43;-4.20;99.90
5358;DHT22;2702;51.014;7.170;2022-12-18T03:03:30;-4.30;99.90
5358;DHT22;2702;51.014;7.170;2022-12-18T03:06:10;-4.30;99.90
5358;DHT22;2702;51.014;7.170;2022-12-18T03:08:45;-4.30;99.90
5358;DHT22;2702;51.014;7.170;2022-12-18T03:11:13;-4.40;99.90
5358;DHT22;2702;51.014;7.170;2022-12-18T03:13:48;-4.50;99.90
5358;DHT22;2702;51.014;7.170;2022-12-18T03:16:19;-4.50;99.90
5358;DHT22;2702;51.014;7.170;2022-12-18T03:18:59;-4.50;99.90
5358;DHT22;2702;51.014;7.170;2022-12-18T03:21:38;-4.50;99.90
5358;DHT22;2702;51.014;7.170;2022-12-18T03:24:07;-4.50;99.90
5358;DHT22;2702;51.014;7.170;2022-12-18T03:26:35;-4.50;99.90
5358;DHT22;2702;51.014;7.170;2022-12-18T03:29:07;-4.50;99.90
5358;DHT22;2702;51.014;7.170;2022-12-18T03:31:34;-4.50;99.90
5358;DHT22;2702;51.014;7.170;2022-12-18T03:34:09;-4.60;99.90
5358;DHT22;2702;51.014;7.170;2022-12-18T03:36:37;-4.60;99.90
5358;DHT22;2702;51.014;7.170;2022-12-18T03:39:03;-4.60;99.90
5358;DHT22;2702;51.014;7.170;2022-12-18T03:41:31;-4.60;99.90
5358;DHT22;2702;51.014;7.170;2022-12-18T03:44:26;-4.60;99.90
5358;DHT22;2702;51.014;7.170;2022-12-18T03:52:22;-4.50;99.90
5358;DHT22;2702;51.014;7.170;2022-12-18T03:54:51;-4.50;99.90
5358;DHT22;2702;51.014;7.170;2022-12-18T03:57:22;-4.50;99.90
5358;DHT22;2702;51.014;7.170;2022-12-18T03:59:56;-4.60;99.90
5358;DHT22;2702;51.014;7.170;2022-12-18T04:02:24;-4.50;99.90
5358;DHT22;2702;51.014;7.170;2022-12-18T04:04:53;-4.50;99.90
5358;DHT22;2702;51.014;7.170;2022-12-18T04:07:21;-4.60;99.90
5358;DHT22;2702;51.014;7.170;2022-12-18T04:09:49;-4.60;99.90
5358;DHT22;2702;51.014;7.170;2022-12-18T04:12:16;-4.50;99.90
5358;DHT22;2702;51.014;7.170;2022-12-18T04:14:42;-4.60;99.90
5358;DHT22;2702;51.014;7.170;2022-12-18T04:17:08;-4.50;99.90
5358;DHT22;2702;51.014;7.170;2022-12-18T04:19:33;-4.60;99.90
5358;DHT22;2702;51.014;7.170;2022-12-18T04:21:59;-4.60;99.90
5358;DHT22;2702;51.014;7.170;2022-12-18T04:24:25;-4.60;99.90
5358;DHT22;2702;51.014;7.170;2022-12-18T04:26:51;-4.60;99.90
5358;DHT22;2702;51.014;7.170;2022-12-18T04:29:17;-4.60;99.90
5358;DHT22;2702;51.014;7.170;2022-12-18T04:31:42;-4.60;99.90
5358;DHT22;2702;51.014;7.170;2022-12-18T04:34:08;-4.50;99.90
5358;DHT22;2702;51.014;7.170;2022-12-18T04:36:34;-4.50;99.90
5358;DHT22;2702;51.014;7.170;2022-12-18T04:39:00;-4.60;99.90
5358;DHT22;2702;51.014;7.170;2022-12-18T04:41:26;-4.50;99.90
5358;DHT22;2702;51.014;7.170;2022-12-18T04:43:51;-4.50;99.90
5358;DHT22;2702;51.014;7.170;2022-12-18T04:46:17;-4.50;99.90
5358;DHT22;2702;51.014;7.170;2022-12-18T04:48:45;-4.50;99.90
5358;DHT22;2702;51.014;7.170;2022-12-18T04:51:12;-4.40;99.90
5358;DHT22;2702;51.014;7.170;2022-12-18T04:53:38;-4.40;99.90
5358;DHT22;2702;51.014;7.170;2022-12-18T04:56:10;-4.40;99.90
5358;DHT22;2702;51.014;7.170;2022-12-18T04:58:38;-4.50;99.90
5358;DHT22;2702;51.014;7.170;2022-12-18T05:01:04;-4.60;99.90
5358;DHT22;2702;51.014;7.170;2022-12-18T05:03:31;-4.50;99.90
5358;DHT22;2702;51.014;7.170;2022-12-18T05:05:57;-4.60;99.90
5358;DHT22;2702;51.014;7.170;2022-12-18T05:08:23;-4.60;99.90
5358;DHT22;2702;51.014;7.170;2022-12-18T05:10:49;-4.50;99.90
5358;DHT22;2702;51.014;7.170;2022-12-18T05:13:15;-4.60;99.90
5358;DHT22;2702;51.014;7.170;2022-12-18T05:15:41;-4.70;99.90
5358;DHT22;2702;51.014;7.170;2022-12-18T05:18:07;-4.60;99.90
5358;DHT22;2702;51.014;7.170;2022-12-18T05:20:33;-4.70;99.90
5358;DHT22;2702;51.014;7.170;2022-12-18T05:22:59;-4.70;99.90
5358;DHT22;2702;51.014;7.170;2022-12-18T05:25:25;-4.70;99.90
5358;DHT22;2702;51.014;7.170;2022-12-18T05:27:51;-4.70;99.90
5358;DHT22;2702;51.014;7.170;2022-12-18T05:30:17;-4.70;99.90
5358;DHT22;2702;51.014;7.170;2022-12-18T05:32:43;-4.70;99.90
5358;DHT22;2702;51.014;7.170;2022-12-18T05:35:10;-4.70;99.90
5358;DHT22;2702;51.014;7.170;2022-12-18T05:37:36;-4.70;99.90
5358;DHT22;2702;51.014;7.170;2022-12-18T05:40:04;-4.70;99.90
5358;DHT22;2702;51.014;7.170;2022-12-18T05:42:30;-4.70;99.90
5358;DHT22;2702;51.014;7.170;2022-12-18T05:44:56;-4.70;99.90
5358;DHT22;2702;51.014;7.170;2022-12-18T05:47:22;-4.70;99.90
5358;DHT22;2702;51.014;7.170;2022-12-18T05:49:48;-4.70;99.90
5358;DHT22;2702;51.014;7.170;2022-12-18T05:52:14;-4.70;99.90
5358;DHT22;2702;51.014;7.170;2022-12-18T05:54:40;-4.70;99.90
5358;DHT22;2702;51.014;7.170;2022-12-18T05:57:05;-4.70;99.90
5358;DHT22;2702;51.014;7.170;2022-12-18T05:59:31;-4.70;99.90
5358;DHT22;2702;51.014;7.170;2022-12-18T06:01:57;-4.80;99.90
5358;DHT22;2702;51.014;7.170;2022-12-18T06:04:23;-4.70;99.90
5358;DHT22;2702;51.014;7.170;2022-12-18T06:06:49;-4.80;99.90
5358;DHT22;2702;51.014;7.170;2022-12-18T06:09:14;-4.70;99.90
5358;DHT22;2702;51.014;7.170;2022-12-18T06:11:40;-4.70;99.90
5358;DHT22;2702;51.014;7.170;2022-12-18T06:14:08;-4.70;99.90
5358;DHT22;2702;51.014;7.170;2022-12-18T06:16:35;-4.70;99.90
5358;DHT22;2702;51.014;7.170;2022-12-18T06:19:02;-4.70;99.90
5358;DHT22;2702;51.014;7.170;2022-12-18T06:21:29;-4.70;99.90
5358;DHT22;2702;51.014;7.170;2022-12-18T06:23:56;-4.60;99.90
5358;DHT22;2702;51.014;7.170;2022-12-18T06:26:23;-4.60;99.90
5358;DHT22;2702;51.014;7.170;2022-12-18T06:28:49;-4.60;99.90
5358;DHT22;2702;51.014;7.170;2022-12-18T06:31:15;-4.60;99.90
5358;DHT22;2702;51.014;7.170;2022-12-18T06:33:41;-4.60;99.90
5358;DHT22;2702;51.014;7.170;2022-12-18T06:36:12;-4.60;99.90
5358;DHT22;2702;51.014;7.170;2022-12-18T06:38:40;-4.60;99.90
5358;DHT22;2702;51.014;7.170;2022-12-18T06:41:16;-4.70;99.90
5358;DHT22;2702;51.014;7.170;2022-12-18T06:43:43;-4.70;99.90
5358;DHT22;2702;51.014;7.170;2022-12-18T06:46:10;-4.70;99.90
5358;DHT22;2702;51.014;7.170;2022-12-18T06:48:36;-4.70;99.90
5358;DHT22;2702;51.014;7.170;2022-12-18T06:51:03;-4.70;99.90
5358;DHT22;2702;51.014;7.170;2022-12-18T06:53:29;-4.80;99.90
5358;DHT22;2702;51.014;7.170;2022-12-18T06:56:06;-4.80;99.90
5358;DHT22;2702;51.014;7.170;2022-12-18T06:58:33;-4.80;99.90
5358;DHT22;2702;51.014;7.170;2022-12-18T07:01:03;-4.80;99.90
5358;DHT22;2702;51.014;7.170;2022-12-18T07:03:29;-4.80;99.90
5358;DHT22;2702;51.014;7.170;2022-12-18T07:05:56;-4.70;99.90
5358;DHT22;2702;51.014;7.170;2022-12-18T07:08:22;-4.80;99.90
5358;DHT22;2702;51.014;7.170;2022-12-18T07:10:48;-4.80;99.90
5358;DHT22;2702;51.014;7.170;2022-12-18T07:13:15;-4.70;99.90
5358;DHT22;2702;51.014;7.170;2022-12-18T07:15:42;-4.70;99.90
5358;DHT22;2702;51.014;7.170;2022-12-18T07:18:07;-4.70;99.90
5358;DHT22;2702;51.014;7.170;2022-12-18T07:20:33;-4.70;99.90
5358;DHT22;2702;51.014;7.170;2022-12-18T07:23:04;-4.60;99.90
5358;DHT22;2702;51.014;7.170;2022-12-18T07:25:36;-4.50;99.90
5358;DHT22;2702;51.014;7.170;2022-12-18T07:28:03;-4.60;99.90
5358;DHT22;2702;51.014;7.170;2022-12-18T07:30:29;-4.60;99.90
5358;DHT22;2702;51.014;7.170;2022-12-18T07:32:55;-4.60;99.90
5358;DHT22;2702;51.014;7.170;2022-12-18T07:35:20;-4.60;99.90
5358;DHT22;2702;51.014;7.170;2022-12-18T07:37:46;-4.60;99.90
5358;DHT22;2702;51.014;7.170;2022-12-18T07:40:12;-4.60;99.90
5358;DHT22;2702;51.014;7.170;2022-12-18T07:42:38;-4.60;99.90
5358;DHT22;2702;51.014;7.170;2022-12-18T07:45:04;-4.60;99.90
5358;DHT22;2702;51.014;7.170;2022-12-18T07:47:30;-4.60;99.90
5358;DHT22;2702;51.014;7.170;2022-12-18T07:49:56;-4.60;99.90
5358;DHT22;2702;51.014;7.170;2022-12-18T07:52:22;-4.60;99.90
5358;DHT22;2702;51.014;7.170;2022-12-18T07:54:48;-4.60;99.90
5358;DHT22;2702;51.014;7.170;2022-12-18T07:57:16;-4.60;99.90
5358;DHT22;2702;51.014;7.170;2022-12-18T07:59:42;-4.60;99.90
5358;DHT22;2702;51.014;7.170;2022-12-18T08:02:08;-4.50;99.90
5358;DHT22;2702;51.014;7.170;2022-12-18T08:04:34;-4.40;99.90
5358;DHT22;2702;51.014;7.170;2022-12-18T08:07:00;-4.40;99.90
5358;DHT22;2702;51.014;7.170;2022-12-18T08:09:26;-4.40;99.90
5358;DHT22;2702;51.014;7.170;2022-12-18T08:11:52;-4.40;99.90
5358;DHT22;2702;51.014;7.170;2022-12-18T08:14:18;-4.30;99.90
5358;DHT22;2702;51.014;7.170;2022-12-18T08:16:44;-4.20;99.90
5358;DHT22;2702;51.014;7.170;2022-12-18T08:19:10;-4.20;99.90
5358;DHT22;2702;51.014;7.170;2022-12-18T08:21:37;-4.10;99.90
5358;DHT22;2702;51.014;7.170;2022-12-18T08:24:03;-4.10;99.90
5358;DHT22;2702;51.014;7.170;2022-12-18T08:26:31;-4.00;99.90
5358;DHT22;2702;51.014;7.170;2022-12-18T08:28:58;-4.00;99.90
5358;DHT22;2702;51.014;7.170;2022-12-18T08:31:26;-3.90;99.90
5358;DHT22;2702;51.014;7.170;2022-12-18T08:33:53;-3.80;99.90
5358;DHT22;2702;51.014;7.170;2022-12-18T08:36:20;-3.70;99.90
5358;DHT22;2702;51.014;7.170;2022-12-18T08:38:46;-3.70;99.90
5358;DHT22;2702;51.014;7.170;2022-12-18T08:41:14;-3.70;99.90
5358;DHT22;2702;51.014;7.170;2022-12-18T08:43:41;-3.60;99.90
5358;DHT22;2702;51.014;7.170;2022-12-18T08:46:32;-3.50;99.90
5358;DHT22;2702;51.014;7.170;2022-12-18T08:48:58;-3.50;99.90
5358;DHT22;2702;51.014;7.170;2022-12-18T08:51:24;-3.40;99.90
5358;DHT22;2702;51.014;7.170;2022-12-18T08:53:50;-3.30;99.90
5358;DHT22;2702;51.014;7.170;2022-12-18T08:56:16;-3.20;99.90
5358;DHT22;2702;51.014;7.170;2022-12-18T08:58:42;-3.20;99.90
5358;DHT22;2702;51.014;7.170;2022-12-18T09:01:10;-3.10;99.90
5358;DHT22;2702;51.014;7.170;2022-12-18T09:03:36;-3.00;99.90
5358;DHT22;2702;51.014;7.170;2022-12-18T09:06:02;-2.90;99.90
5358;DHT22;2702;51.014;7.170;2022-12-18T09:08:28;-2.90;99.90
5358;DHT22;2702;51.014;7.170;2022-12-18T09:10:54;-2.80;99.90
5358;DHT22;2702;51.014;7.170;2022-12-18T09:13:21;-2.80;99.90
5358;DHT22;2702;51.014;7.170;2022-12-18T09:15:54;-2.70;99.90
5358;DHT22;2702;51.014;7.170;2022-12-18T09:18:22;-2.70;99.90
5358;DHT22;2702;51.014;7.170;2022-12-18T09:20:48;-2.70;99.90
5358;DHT22;2702;51.014;7.170;2022-12-18T09:23:15;-2.60;99.90
5358;DHT22;2702;51.014;7.170;2022-12-18T09:25:41;-2.60;99.90
5358;DHT22;2702;51.014;7.170;2022-12-18T09:28:12;-2.60;99.90
5358;DHT22;2702;51.014;7.170;2022-12-18T09:30:40;-2.50;99.90
5358;DHT22;2702;51.014;7.170;2022-12-18T09:33:07;-2.50;99.90
5358;DHT22;2702;51.014;7.170;2022-12-18T09:35:36;-2.40;99.90
5358;DHT22;2702;51.014;7.170;2022-12-18T09:38:02;-2.30;99.90
5358;DHT22;2702;51.014;7.170;2022-12-18T09:40:34;-2.30;99.90
5358;DHT22;2702;51.014;7.170;2022-12-18T09:43:04;-2.20;99.90
5358;DHT22;2702;51.014;7.170;2022-12-18T09:45:39;-2.10;99.90
5358;DHT22;2702;51.014;7.170;2022-12-18T09:48:08;-2.00;99.90
5358;DHT22;2702;51.014;7.170;2022-12-18T09:50:39;-1.90;99.90
5358;DHT22;2702;51.014;7.170;2022-12-18T09:53:12;-1.90;99.90
5358;DHT22;2702;51.014;7.170;2022-12-18T09:55:43;-1.80;99.90
5358;DHT22;2702;51.014;7.170;2022-12-18T10:00:39;-1.60;99.90
5358;DHT22;2702;51.014;7.170;2022-12-18T10:03:13;-1.60;99.90
5358;DHT22;2702;51.014;7.170;2022-12-18T10:11:01;-1.50;99.90
5358;DHT22;2702;51.014;7.170;2022-12-18T10:13:46;-1.50;99.90
5358;DHT22;2702;51.014;7.170;2022-12-18T10:16:19;-1.50;99.90
5358;DHT22;2702;51.014;7.170;2022-12-18T10:24:20;-1.40;99.90
5358;DHT22;2702;51.014;7.170;2022-12-18T10:26:51;-1.30;99.90
5358;DHT22;2702;51.014;7.170;2022-12-18T10:29:19;-1.20;99.90
5358;DHT22;2702;51.014;7.170;2022-12-18T10:31:45;-1.20;99.90
5358;DHT22;2702;51.014;7.170;2022-12-18T10:34:14;-1.20;99.90
5358;DHT22;2702;51.014;7.170;2022-12-18T10:36:41;-1.10;99.90
5358;DHT22;2702;51.014;7.170;2022-12-18T10:39:19;-1.00;99.90
5358;DHT22;2702;51.014;7.170;2022-12-18T10:41:45;-1.00;99.90
5358;DHT22;2702;51.014;7.170;2022-12-18T10:44:17;-0.90;99.90
5358;DHT22;2702;51.014;7.170;2022-12-18T10:46:45;-0.70;99.90
5358;DHT22;2702;51.014;7.170;2022-12-18T10:49:23;-0.60;99.90
5358;DHT22;2702;51.014;7.170;2022-12-18T10:51:51;-0.50;99.90
5358;DHT22;2702;51.014;7.170;2022-12-18T10:54:32;-0.50;99.90
5358;DHT22;2702;51.014;7.170;2022-12-18T10:59:54;-0.40;99.90
5358;DHT22;2702;51.014;7.170;2022-12-18T11:02:38;-0.40;99.90
5358;DHT22;2702;51.014;7.170;2022-12-18T11:05:28;-0.40;99.90
5358;DHT22;2702;51.014;7.170;2022-12-18T11:07:54;-0.40;99.90
5358;DHT22;2702;51.014;7.170;2022-12-18T11:10:26;-0.30;99.90
5358;DHT22;2702;51.014;7.170;2022-12-18T11:12:54;-0.30;99.90
5358;DHT22;2702;51.014;7.170;2022-12-18T11:15:30;-0.30;99.90
5358;DHT22;2702;51.014;7.170;2022-12-18T11:17:56;-0.30;99.90
5358;DHT22;2702;51.014;7.170;2022-12-18T11:20:34;-0.20;99.90
5358;DHT22;2702;51.014;7.170;2022-12-18T11:23:12;-0.20;99.90
5358;DHT22;2702;51.014;7.170;2022-12-18T11:25:39;-0.10;99.90
5358;DHT22;2702;51.014;7.170;2022-12-18T11:28:26;-0.10;99.90
5358;DHT22;2702;51.014;7.170;2022-12-18T11:33:57;-0.20;99.90
5358;DHT22;2702;51.014;7.170;2022-12-18T11:36:28;-0.20;99.90
5358;DHT22;2702;51.014;7.170;2022-12-18T11:38:55;-0.20;99.90
5358;DHT22;2702;51.014;7.170;2022-12-18T11:44:29;-0.30;99.90
5358;DHT22;2702;51.014;7.170;2022-12-18T11:47:37;-0.40;99.90
5358;DHT22;2702;51.014;7.170;2022-12-18T11:50:28;-0.40;99.90
5358;DHT22;2702;51.014;7.170;2022-12-18T11:52:55;-0.40;99.90
5358;DHT22;2702;51.014;7.170;2022-12-18T11:56:21;-0.40;99.90
5358;DHT22;2702;51.014;7.170;2022-12-18T11:58:57;-0.40;99.90
5358;DHT22;2702;51.014;7.170;2022-12-18T12:17:42;-0.50;99.90
5358;DHT22;2702;51.014;7.170;2022-12-18T12:25:57;-0.70;99.90
5358;DHT22;2702;51.014;7.170;2022-12-18T12:29:02;-0.60;99.90
5358;DHT22;2702;51.014;7.170;2022-12-18T12:34:29;-0.70;99.90
5358;DHT22;2702;51.014;7.170;2022-12-18T12:39:39;-0.70;99.90
5358;DHT22;2702;51.014;7.170;2022-12-18T12:42:31;-0.80;99.90
5358;DHT22;2702;51.014;7.170;2022-12-18T12:45:33;-0.80;99.90
5358;DHT22;2702;51.014;7.170;2022-12-18T12:48:02;-1.00;99.90
5358;DHT22;2702;51.014;7.170;2022-12-18T12:50:33;-1.00;99.90
5358;DHT22;2702;51.014;7.170;2022-12-18T12:53:01;-1.00;99.90
5358;DHT22;2702;51.014;7.170;2022-12-18T12:55:32;-1.10;99.90
5358;DHT22;2702;51.014;7.170;2022-12-18T13:01:09;-1.30;99.90
5358;DHT22;2702;51.014;7.170;2022-12-18T13:03:50;-1.30;99.90
5358;DHT22;2702;51.014;7.170;2022-12-18T13:06:48;-1.30;99.90
5358;DHT22;2702;51.014;7.170;2022-12-18T13:09:16;-1.40;99.90
5358;DHT22;2702;51.014;7.170;2022-12-18T13:11:44;-1.50;99.90
5358;DHT22;2702;51.014;7.170;2022-12-18T13:14:37;-1.50;99.90
5358;DHT22;2702;51.014;7.170;2022-12-18T13:20:07;-1.50;99.90
5358;DHT22;2702;51.014;7.170;2022-12-18T13:22:37;-1.40;99.90
5358;DHT22;2702;51.014;7.170;2022-12-18T13:25:30;-1.40;99.90
5358;DHT22;2702;51.014;7.170;2022-12-18T13:28:04;-1.40;99.90
5358;DHT22;2702;51.014;7.170;2022-12-18T13:30:43;-1.50;99.90
5358;DHT22;2702;51.014;7.170;2022-12-18T13:38:35;-1.30;99.90
5358;DHT22;2702;51.014;7.170;2022-12-18T13:43:45;-1.20;99.90
5358;DHT22;2702;51.014;7.170;2022-12-18T13:46:22;-1.20;99.90
5358;DHT22;2702;51.014;7.170;2022-12-18T13:48:58;-1.30;99.90
5358;DHT22;2702;51.014;7.170;2022-12-18T13:51:26;-1.20;99.90
5358;DHT22;2702;51.014;7.170;2022-12-18T13:53:54;-1.30;99.90
5358;DHT22;2702;51.014;7.170;2022-12-18T13:56:30;-1.40;99.90
5358;DHT22;2702;51.014;7.170;2022-12-18T13:59:15;-1.40;99.90
5358;DHT22;2702;51.014;7.170;2022-12-18T14:02:23;-1.40;99.90
5358;DHT22;2702;51.014;7.170;2022-12-18T14:04:48;-1.40;99.90
5358;DHT22;2702;51.014;7.170;2022-12-18T14:07:15;-1.50;99.90
5358;DHT22;2702;51.014;7.170;2022-12-18T14:10:11;-1.50;99.90
5358;DHT22;2702;51.014;7.170;2022-12-18T14:12:36;-1.50;99.90
5358;DHT22;2702;51.014;7.170;2022-12-18T14:17:54;-1.50;99.90
5358;DHT22;2702;51.014;7.170;2022-12-18T14:20:21;-1.50;99.90
5358;DHT22;2702;51.014;7.170;2022-12-18T14:22:49;-1.50;99.90
5358;DHT22;2702;51.014;7.170;2022-12-18T14:25:21;-1.50;99.90
5358;DHT22;2702;51.014;7.170;2022-12-18T14:30:36;-1.50;99.90
5358;DHT22;2702;51.014;7.170;2022-12-18T14:33:09;-1.50;99.90
5358;DHT22;2702;51.014;7.170;2022-12-18T14:36:13;-1.50;99.90
5358;DHT22;2702;51.014;7.170;2022-12-18T14:38:30;-1.50;99.90
5358;DHT22;2702;51.014;7.170;2022-12-18T14:41:01;-1.50;99.90
5358;DHT22;2702;51.014;7.170;2022-12-18T14:43:33;-1.50;99.90
5358;DHT22;2702;51.014;7.170;2022-12-18T14:46:00;-1.60;99.90
5358;DHT22;2702;51.014;7.170;2022-12-18T14:48:42;-1.60;99.90
5358;DHT22;2702;51.014;7.170;2022-12-18T14:51:21;-1.60;99.90
5358;DHT22;2702;51.014;7.170;2022-12-18T14:54:14;-1.60;99.90
5358;DHT22;2702;51.014;7.170;2022-12-18T14:56:44;-1.60;99.90
5358;DHT22;2702;51.014;7.170;2022-12-18T14:59:16;-1.70;99.90
5358;DHT22;2702;51.014;7.170;2022-12-18T15:04:37;-1.70;99.90
5358;DHT22;2702;51.014;7.170;2022-12-18T15:07:15;-1.70;99.90
5358;DHT22;2702;51.014;7.170;2022-12-18T15:18:05;-1.70;99.90
5358;DHT22;2702;51.014;7.170;2022-12-18T15:21:03;-1.70;99.90
5358;DHT22;2702;51.014;7.170;2022-12-18T15:23:38;-1.80;99.90
5358;DHT22;2702;51.014;7.170;2022-12-18T15:26:13;-1.80;99.90
5358;DHT22;2702;51.014;7.170;2022-12-18T15:28:51;-1.90;99.90
5358;DHT22;2702;51.014;7.170;2022-12-18T15:36:18;-2.00;99.90
5358;DHT22;2702;51.014;7.170;2022-12-18T15:38:51;-2.00;99.90
5358;DHT22;2702;51.014;7.170;2022-12-18T15:41:19;-2.00;99.90
5358;DHT22;2702;51.014;7.170;2022-12-18T15:43:48;-2.00;99.90
5358;DHT22;2702;51.014;7.170;2022-12-18T15:46:19;-2.00;99.90
5358;DHT22;2702;51.014;7.170;2022-12-18T15:48:48;-2.10;99.90
5358;DHT22;2702;51.014;7.170;2022-12-18T15:51:29;-2.10;99.90
5358;DHT22;2702;51.014;7.170;2022-12-18T15:53:59;-2.20;99.90
5358;DHT22;2702;51.014;7.170;2022-12-18T15:56:26;-2.20;99.90
5358;DHT22;2702;51.014;7.170;2022-12-18T15:59:18;-2.20;99.90
5358;DHT22;2702;51.014;7.170;2022-12-18T16:01:47;-2.30;99.90
5358;DHT22;2702;51.014;7.170;2022-12-18T16:04:15;-2.30;99.90
5358;DHT22;2702;51.014;7.170;2022-12-18T16:06:42;-2.40;99.90
5358;DHT22;2702;51.014;7.170;2022-12-18T16:09:08;-2.40;99.90
5358;DHT22;2702;51.014;7.170;2022-12-18T16:11:36;-2.40;99.90
5358;DHT22;2702;51.014;7.170;2022-12-18T16:16:41;-2.40;99.90
5358;DHT22;2702;51.014;7.170;2022-12-18T16:19:07;-2.40;99.90
5358;DHT22;2702;51.014;7.170;2022-12-18T16:21:33;-2.40;99.90
5358;DHT22;2702;51.014;7.170;2022-12-18T16:23:59;-2.40;99.90
5358;DHT22;2702;51.014;7.170;2022-12-18T16:26:25;-2.40;99.90
5358;DHT22;2702;51.014;7.170;2022-12-18T16:28:51;-2.40;99.90
5358;DHT22;2702;51.014;7.170;2022-12-18T16:31:17;-2.40;99.90
5358;DHT22;2702;51.014;7.170;2022-12-18T16:33:42;-2.40;99.90
5358;DHT22;2702;51.014;7.170;2022-12-18T16:36:08;-2.40;99.90
5358;DHT22;2702;51.014;7.170;2022-12-18T16:38:34;-2.40;99.90
5358;DHT22;2702;51.014;7.170;2022-12-18T16:41:00;-2.40;99.90
5358;DHT22;2702;51.014;7.170;2022-12-18T16:43:45;-2.40;99.90
5358;DHT22;2702;51.014;7.170;2022-12-18T16:46:11;-2.40;99.90
5358;DHT22;2702;51.014;7.170;2022-12-18T16:48:37;-2.40;99.90
5358;DHT22;2702;51.014;7.170;2022-12-18T16:51:04;-2.40;99.90
5358;DHT22;2702;51.014;7.170;2022-12-18T16:53:32;-2.30;99.90
5358;DHT22;2702;51.014;7.170;2022-12-18T16:55:58;-2.40;99.90
5358;DHT22;2702;51.014;7.170;2022-12-18T16:58:24;-2.40;99.90
5358;DHT22;2702;51.014;7.170;2022-12-18T17:00:50;-2.40;99.90
5358;DHT22;2702;51.014;7.170;2022-12-18T17:03:16;-2.40;99.90
5358;DHT22;2702;51.014;7.170;2022-12-18T17:05:42;-2.40;99.90
5358;DHT22;2702;51.014;7.170;2022-12-18T17:08:08;-2.40;99.90
5358;DHT22;2702;51.014;7.170;2022-12-18T17:10:35;-2.40;99.90
5358;DHT22;2702;51.014;7.170;2022-12-18T17:13:01;-2.40;99.90
5358;DHT22;2702;51.014;7.170;2022-12-18T17:15:27;-2.40;99.90
5358;DHT22;2702;51.014;7.170;2022-12-18T17:17:52;-2.40;99.90
5358;DHT22;2702;51.014;7.170;2022-12-18T17:20:18;-2.40;99.90
5358;DHT22;2702;51.014;7.170;2022-12-18T17:22:44;-2.40;99.90
5358;DHT22;2702;51.014;7.170;2022-12-18T17:25:10;-2.40;99.90
5358;DHT22;2702;51.014;7.170;2022-12-18T17:27:36;-2.40;99.90
5358;DHT22;2702;51.014;7.170;2022-12-18T17:30:03;-2.40;99.90
5358;DHT22;2702;51.014;7.170;2022-12-18T17:32:29;-2.40;99.90
5358;DHT22;2702;51.014;7.170;2022-12-18T17:34:55;-2.40;99.90
5358;DHT22;2702;51.014;7.170;2022-12-18T17:37:21;-2.40;99.90
5358;DHT22;2702;51.014;7.170;2022-12-18T17:39:47;-2.40;99.90
5358;DHT22;2702;51.014;7.170;2022-12-18T17:42:12;-2.40;99.90
5358;DHT22;2702;51.014;7.170;2022-12-18T17:44:40;-2.40;99.90
5358;DHT22;2702;51.014;7.170;2022-12-18T17:47:07;-2.40;99.90
5358;DHT22;2702;51.014;7.170;2022-12-18T17:49:37;-2.40;99.90
5358;DHT22;2702;51.014;7.170;2022-12-18T17:52:03;-2.40;99.90
5358;DHT22;2702;51.014;7.170;2022-12-18T17:54:29;-2.40;99.90
5358;DHT22;2702;51.014;7.170;2022-12-18T17:56:55;-2.40;99.90
5358;DHT22;2702;51.014;7.170;2022-12-18T17:59:21;-2.40;99.90
5358;DHT22;2702;51.014;7.170;2022-12-18T18:01:47;-2.40;99.90
5358;DHT22;2702;51.014;7.170;2022-12-18T18:04:14;-2.40;99.90
5358;DHT22;2702;51.014;7.170;2022-12-18T18:06:40;-2.40;99.90
5358;DHT22;2702;51.014;7.170;2022-12-18T18:09:07;-2.40;99.90
5358;DHT22;2702;51.014;7.170;2022-12-18T18:11:33;-2.40;99.90
5358;DHT22;2702;51.014;7.170;2022-12-18T18:14:19;-2.40;99.90
5358;DHT22;2702;51.014;7.170;2022-12-18T18:16:48;-2.40;99.90